createdAt,value
2018-04-17T00:00:50.552Z,100650
2018-04-17T00:05:52.149Z,100654
2018-04-17T00:10:53.762Z,100657
2018-04-17T00:15:55.304Z,100653
2018-04-17T00:20:56.898Z,100665
2018-04-17T00:25:58.510Z,100664
2018-04-17T00:31:00.846Z,100675
2018-04-17T00:36:02.383Z,100677
2018-04-17T00:41:03.953Z,100688
2018-04-17T00:46:06.240Z,100694
2018-04-17T00:51:07.918Z,100704
2018-04-17T00:56:09.457Z,100696
2018-04-17T01:01:10.977Z,100705
2018-04-17T01:06:12.510Z,100702
2018-04-17T01:11:14.806Z,100719
2018-04-17T01:16:16.382Z,100711
2018-04-17T01:21:17.967Z,100711
2018-04-17T01:26:19.508Z,100721
2018-04-17T01:31:21.020Z,100716
2018-04-17T01:36:22.562Z,100720
2018-04-17T01:41:24.208Z,100726
2018-04-17T01:46:26.473Z,100725
2018-04-17T01:51:28.785Z,100735
2018-04-17T01:56:30.416Z,100734
2018-04-17T02:01:32.128Z,100727
2018-04-17T02:06:33.870Z,100732
2018-04-17T02:11:35.452Z,100723
2018-04-17T02:16:37.736Z,100723
2018-04-17T02:21:40.201Z,100725
2018-04-17T02:26:41.734Z,100731
2018-04-17T02:31:43.291Z,100730
2018-04-17T02:36:44.863Z,100739
2018-04-17T02:41:46.488Z,100754
2018-04-17T02:46:48.019Z,100751
2018-04-17T02:51:49.595Z,100754
2018-04-17T02:56:51.126Z,100744
2018-04-17T03:01:52.662Z,100754
2018-04-17T03:06:54.233Z,100761
2018-04-17T03:11:56.507Z,100772
2018-04-17T03:16:58.072Z,100763
2018-04-17T03:21:59.792Z,100774
2018-04-17T03:27:01.351Z,100780
2018-04-17T03:32:02.936Z,100784
2018-04-17T03:37:04.496Z,100787
2018-04-17T03:42:06.132Z,100795
2018-04-17T03:47:07.745Z,100797
2018-04-17T03:52:09.279Z,100796
2018-04-17T03:57:11.637Z,100808
2018-04-17T04:02:13.128Z,100807
2018-04-17T04:07:15.416Z,100826
2018-04-17T04:12:17.728Z,100825
2018-04-17T04:33:31.295Z,100836
2018-04-17T04:38:32.875Z,100847
2018-04-17T04:43:34.500Z,100852
2018-04-17T04:48:36.829Z,100852
2018-04-17T04:53:38.360Z,100857
2018-04-17T04:58:39.927Z,100858
2018-04-17T05:03:42.714Z,100866
2018-04-17T05:08:44.991Z,100878
2018-04-17T05:13:47.234Z,100876
2018-04-17T05:18:48.808Z,100889
2018-04-17T05:23:50.365Z,100887
2018-04-17T05:28:51.910Z,100887
2018-04-17T05:33:53.419Z,100893
2018-04-17T05:38:54.980Z,100906
2018-04-17T05:43:56.581Z,100912
2018-04-17T05:48:58.138Z,100934
2018-04-17T05:53:59.611Z,100947
2018-04-17T05:59:01.322Z,100949
2018-04-17T06:04:02.798Z,100958
2018-04-17T06:09:05.266Z,100965
2018-04-17T06:14:07.511Z,100974
2018-04-17T06:19:09.404Z,100984
2018-04-17T06:24:10.946Z,100994
2018-04-17T06:29:12.461Z,100994
2018-04-17T06:34:14.144Z,101004
2018-04-17T06:39:15.721Z,101012
2018-04-17T06:44:17.320Z,101022
2018-04-17T06:49:18.878Z,101028
2018-04-17T06:54:20.641Z,101044
2018-04-17T06:59:22.209Z,101058
2018-04-17T07:04:23.716Z,101062
2018-04-17T07:09:25.230Z,101074
2018-04-17T07:14:26.843Z,101083
2018-04-17T07:19:28.412Z,101100
2018-04-17T07:24:29.980Z,101102
2018-04-17T07:29:31.558Z,101090
2018-04-17T07:34:33.107Z,101088
2018-04-17T07:39:34.679Z,101102
2018-04-17T07:44:36.305Z,101100
2018-04-17T07:49:37.829Z,101110
2018-04-17T07:54:39.408Z,101104
2018-04-17T07:59:40.981Z,101095
2018-04-17T08:04:43.231Z,101104
2018-04-17T08:09:44.839Z,101094
2018-04-17T08:14:46.469Z,101099
2018-04-17T08:19:48.004Z,101102
2018-04-17T08:24:49.561Z,101101
2018-04-17T08:29:51.193Z,101101
2018-04-17T08:34:52.715Z,101115
2018-04-17T08:39:54.656Z,101111
2018-04-17T08:44:56.540Z,101118
2018-04-17T08:49:59.035Z,101126
2018-04-17T08:55:01.339Z,101136
2018-04-17T09:00:03.096Z,101137
2018-04-17T09:05:04.646Z,101144
2018-04-17T09:10:06.196Z,101137
2018-04-17T09:15:07.790Z,101145
2018-04-17T09:20:10.071Z,101157
2018-04-17T09:25:11.632Z,101162
2018-04-17T09:30:13.167Z,101164
2018-04-17T09:35:14.726Z,101171
2018-04-17T09:40:16.471Z,101164
2018-04-17T09:45:18.120Z,101168
2018-04-17T09:50:19.638Z,101166
2018-04-17T09:55:21.117Z,101165
2018-04-17T10:00:22.676Z,101161
2018-04-17T10:05:24.175Z,101159
2018-04-17T10:10:25.711Z,101151
2018-04-17T10:15:27.237Z,101148
2018-04-17T10:20:29.526Z,101150
2018-04-17T10:25:31.785Z,101143
2018-04-17T10:30:33.331Z,101138
2018-04-17T10:35:34.912Z,101144
2018-04-17T10:40:36.625Z,101145
2018-04-17T10:45:38.221Z,101139
2018-04-17T10:50:39.754Z,101129
2018-04-17T10:55:42.022Z,101125
2018-04-17T11:00:43.572Z,101127
2018-04-17T11:05:45.104Z,101123
2018-04-17T11:10:46.627Z,101128
2018-04-17T11:15:48.894Z,101121
2018-04-17T11:20:50.435Z,101111
2018-04-17T11:25:51.981Z,101107
2018-04-17T11:30:53.528Z,101100
2018-04-17T11:35:55.874Z,101096
2018-04-17T11:40:57.439Z,101104
2018-04-17T11:45:58.987Z,101095
2018-04-17T11:51:00.539Z,101104
2018-04-17T11:56:02.132Z,101094
2018-04-17T12:01:03.709Z,101095
2018-04-17T12:06:05.368Z,101093
2018-04-17T12:11:06.941Z,101102
2018-04-17T12:16:08.490Z,101104
2018-04-17T12:21:10.157Z,101107
2018-04-17T12:26:11.666Z,101105
2018-04-17T12:31:13.228Z,101112
2018-04-17T12:36:14.803Z,101109
2018-04-17T12:41:16.396Z,101113
2018-04-17T12:46:18.691Z,101118
2018-04-17T12:51:20.978Z,101120
2018-04-17T12:56:22.547Z,101118
2018-04-17T13:01:24.859Z,101114
2018-04-17T13:06:26.456Z,101120
2018-04-17T13:11:28.038Z,101107
2018-04-17T13:16:29.658Z,101107
2018-04-17T13:21:31.224Z,101112
2018-04-17T13:26:32.852Z,101111
2018-04-17T13:31:34.346Z,101108
2018-04-17T13:36:36.661Z,101108
2018-04-17T13:41:38.268Z,101105
2018-04-17T13:46:39.823Z,101093
2018-04-17T13:51:41.385Z,101092
2018-04-17T13:56:42.916Z,101089
2018-04-17T14:01:44.491Z,101096
2018-04-17T14:06:46.074Z,101083
2018-04-17T14:11:47.618Z,101084
2018-04-17T14:16:49.955Z,101099
2018-04-17T14:21:51.506Z,101099
2018-04-17T14:26:53.072Z,101095
2018-04-17T14:31:54.629Z,101089
2018-04-17T14:36:56.235Z,101089
2018-04-17T14:41:58.061Z,101075
2018-04-17T14:46:59.640Z,101085
2018-04-17T14:52:01.171Z,101089
2018-04-17T14:57:03.489Z,101077
2018-04-17T15:02:04.993Z,101082
2018-04-17T15:07:06.591Z,101086
2018-04-17T15:12:09.086Z,101091
2018-04-17T15:17:11.351Z,101091
2018-04-17T15:22:12.872Z,101081
2018-04-17T15:27:14.411Z,101088
2018-04-17T15:32:15.972Z,101086
2018-04-17T15:37:18.348Z,101082
2018-04-17T15:42:19.958Z,101087
2018-04-17T15:47:21.541Z,101080
2018-04-17T15:52:23.288Z,101081
2018-04-17T15:57:25.583Z,101086
2018-04-17T16:02:27.147Z,101088
2018-04-17T16:07:28.809Z,101089
2018-04-17T16:12:30.336Z,101092
2018-04-17T16:17:33.428Z,101095
2018-04-17T16:22:40.111Z,101105
2018-04-17T16:27:41.683Z,101113
2018-04-17T16:32:43.224Z,101122
2018-04-17T16:37:44.816Z,101115
2018-04-17T16:42:46.368Z,101112
2018-04-17T16:47:47.864Z,101121
2018-04-17T16:52:49.367Z,101123
2018-04-17T16:57:51.715Z,101128
2018-04-17T17:02:53.170Z,101133
2018-04-17T17:07:54.893Z,101138
2018-04-17T17:12:57.185Z,101133
2018-04-17T17:17:59.430Z,101143
2018-04-17T17:23:00.875Z,101150
2018-04-17T17:28:02.362Z,101145
2018-04-17T17:33:03.867Z,101152
2018-04-17T17:38:06.085Z,101148
2018-04-17T17:43:13.146Z,101154
2018-04-17T17:48:15.425Z,101161
2018-04-17T17:53:17.714Z,101164
2018-04-17T17:58:20.033Z,101170
2018-04-17T18:03:27.587Z,101190
2018-04-17T18:08:29.181Z,101190
2018-04-17T18:13:35.216Z,101198
2018-04-17T18:18:36.826Z,101207
2018-04-17T18:23:39.136Z,101216
2018-04-17T18:28:40.713Z,101218
2018-04-17T18:33:42.284Z,101202
2018-04-17T18:38:43.852Z,101201
2018-04-17T18:43:45.354Z,101216
2018-04-17T18:48:46.969Z,101221
2018-04-17T18:53:48.505Z,101229
2018-04-17T18:58:50.126Z,101241
2018-04-17T19:03:51.691Z,101237
2018-04-17T19:08:53.263Z,101243
2018-04-17T19:13:54.864Z,101247
2018-04-17T19:18:56.439Z,101251
2018-04-17T19:23:58.019Z,101261
2018-04-17T19:28:59.557Z,101270
2018-04-17T19:34:01.256Z,101273
2018-04-17T19:39:02.838Z,101293
2018-04-17T19:44:05.198Z,101297
2018-04-17T19:49:06.764Z,101291
2018-04-17T19:54:08.343Z,101295
2018-04-17T19:59:10.012Z,101303
2018-04-17T20:04:11.676Z,101303
2018-04-17T20:09:13.297Z,101301
2018-04-17T20:14:14.911Z,101303
2018-04-17T20:19:16.728Z,101300
2018-04-17T20:24:19.017Z,101309
2018-04-17T20:29:21.366Z,101315
2018-04-17T20:34:22.861Z,101308
2018-04-17T20:39:25.253Z,101310
2018-04-17T20:44:27.567Z,101315
2018-04-17T20:49:29.163Z,101320
2018-04-17T20:54:30.737Z,101326
2018-04-17T20:59:32.284Z,101324
2018-04-17T21:04:33.898Z,101333
2018-04-17T21:09:35.710Z,101340
2018-04-17T21:14:37.422Z,101335
2018-04-17T21:19:39.006Z,101334
2018-04-17T21:24:40.808Z,101335
2018-04-17T21:29:49.272Z,101350
2018-04-17T21:34:50.765Z,101356
2018-04-17T21:39:52.358Z,101359
2018-04-17T21:44:54.215Z,101360
2018-04-17T21:49:55.953Z,101369
2018-04-17T21:54:57.804Z,101372
2018-04-17T21:59:59.343Z,101375
2018-04-17T22:05:00.949Z,101382
2018-04-17T22:10:02.532Z,101385
2018-04-17T22:15:04.209Z,101394
2018-04-17T22:20:05.949Z,101405
2018-04-17T22:25:08.253Z,101408
2018-04-17T22:30:09.838Z,101405
2018-04-17T22:35:11.420Z,101400
2018-04-17T22:40:12.934Z,101419
2018-04-17T22:45:15.372Z,101419
2018-04-17T22:50:16.902Z,101426
2018-04-17T22:55:18.454Z,101428
2018-04-17T23:00:20.791Z,101421
2018-04-17T23:05:22.373Z,101433
2018-04-17T23:10:23.920Z,101437
2018-04-17T23:15:25.525Z,101440
2018-04-17T23:20:27.256Z,101438
2018-04-17T23:25:28.807Z,101447
2018-04-17T23:30:30.355Z,101445
2018-04-17T23:35:31.926Z,101442
2018-04-17T23:40:34.221Z,101455
2018-04-17T23:45:35.824Z,101449
2018-04-17T23:50:37.389Z,101459
2018-04-17T23:55:38.950Z,101465
